createdAt,value
2019-04-11T00:03:02.991Z,16.27
2019-04-11T00:06:07.776Z,13.23
2019-04-11T00:09:14.485Z,15.43
2019-04-11T00:12:19.035Z,17.23
2019-04-11T00:15:24.491Z,13.10
2019-04-11T00:18:29.019Z,19.87
2019-04-11T00:21:33.473Z,13.70
2019-04-11T00:24:38.753Z,13.70
2019-04-11T00:27:43.470Z,14.63
2019-04-11T00:30:48.354Z,16.93
2019-04-11T00:33:54.209Z,15.27
2019-04-11T00:36:59.053Z,12.90
2019-04-11T00:40:04.558Z,14.67
2019-04-11T00:43:09.429Z,11.70
2019-04-11T00:46:14.111Z,12.60
2019-04-11T00:49:18.729Z,13.37
2019-04-11T00:52:23.367Z,12.40
2019-04-11T00:55:27.855Z,12.50
2019-04-11T00:58:32.272Z,11.10
2019-04-11T01:01:36.998Z,14.20
2019-04-11T01:04:41.425Z,15.87
2019-04-11T01:07:47.065Z,14.63
2019-04-11T01:10:51.908Z,15.17
2019-04-11T01:13:57.314Z,13.47
2019-04-11T01:17:03.206Z,11.30
2019-04-11T01:20:08.738Z,12.30
2019-04-11T01:23:13.493Z,14.60
2019-04-11T01:26:19.123Z,14.63
2019-04-11T01:29:23.816Z,12.27
2019-04-11T01:32:28.498Z,13.17
2019-04-11T01:35:33.201Z,11.87
2019-04-11T01:38:40.797Z,11.03
2019-04-11T01:41:45.314Z,12.60
2019-04-11T01:44:50.107Z,14.67
2019-04-11T01:47:59.432Z,10.97
2019-04-11T01:51:05.362Z,12.07
2019-04-11T01:54:11.140Z,12.23
2019-04-11T01:57:15.976Z,11.03
2019-04-11T02:00:38.537Z,11.00
2019-04-11T02:03:45.606Z,10.57
2019-04-11T02:06:50.228Z,14.33
2019-04-11T02:09:54.824Z,12.67
2019-04-11T02:12:59.597Z,12.93
2019-04-11T02:16:05.013Z,13.67
2019-04-11T02:19:10.155Z,10.53
2019-04-11T02:22:22.307Z,12.73
2019-04-11T02:25:44.998Z,11.83
2019-04-11T02:28:49.404Z,10.63
2019-04-11T02:31:55.026Z,14.37
2019-04-11T02:35:01.759Z,13.73
2019-04-11T02:38:07.641Z,11.43
2019-04-11T02:41:13.760Z,12.30
2019-04-11T02:44:52.707Z,13.17
2019-04-11T02:47:30.721Z,14.13
2019-04-11T02:50:32.123Z,10.63
2019-04-11T02:53:38.792Z,11.73
2019-04-11T02:56:45.068Z,11.30
2019-04-11T02:59:51.210Z,12.13
2019-04-11T03:02:56.898Z,11.80
2019-04-11T03:06:02.684Z,12.20
2019-04-11T03:09:08.482Z,10.87
2019-04-11T03:12:13.347Z,12.40
2019-04-11T03:15:31.749Z,12.07
2019-04-11T03:18:40.295Z,11.43
2019-04-11T03:21:36.625Z,12.83
2019-04-11T03:24:38.701Z,15.20
2019-04-11T03:27:45.228Z,11.03
2019-04-11T03:31:13.291Z,11.37
2019-04-11T03:40:27.197Z,14.70
2019-04-11T03:43:30.180Z,13.70
2019-04-11T03:46:38.485Z,11.13
2019-04-11T03:49:38.843Z,12.87
2019-04-11T03:52:36.556Z,14.83
2019-04-11T03:55:43.317Z,11.93
2019-04-11T03:58:50.258Z,10.47
2019-04-11T04:01:56.635Z,11.10
2019-04-11T04:05:01.384Z,11.70
2019-04-11T04:08:06.339Z,12.60
2019-04-11T04:11:16.646Z,13.77
2019-04-11T04:14:21.575Z,10.67
2019-04-11T04:17:35.275Z,13.73
2019-04-11T04:20:41.859Z,14.13
2019-04-11T04:23:46.915Z,12.50
2019-04-11T04:26:52.605Z,21.33
2019-04-11T04:30:00.522Z,12.73
2019-04-11T04:33:04.972Z,11.60
2019-04-11T04:36:10.998Z,12.53
2019-04-11T04:39:17.396Z,15.23
2019-04-11T04:42:30.789Z,16.30
2019-04-11T04:45:30.046Z,14.87
2019-04-11T04:48:34.743Z,12.37
2019-04-11T04:51:41.428Z,15.33
2019-04-11T04:54:46.561Z,14.27
2019-04-11T04:57:53.235Z,14.07
2019-04-11T05:00:58.662Z,12.37
2019-04-11T05:04:04.759Z,18.63
2019-04-11T05:07:10.362Z,15.17
2019-04-11T05:10:16.255Z,14.67
2019-04-11T05:13:21.660Z,12.97
2019-04-11T05:16:26.212Z,13.67
2019-04-11T05:19:32.012Z,15.40
2019-04-11T05:22:37.270Z,14.53
2019-04-11T05:25:42.526Z,13.53
2019-04-11T05:28:48.836Z,12.80
2019-04-11T05:31:54.618Z,13.27
2019-04-11T05:34:59.125Z,16.10
2019-04-11T05:38:04.838Z,14.80
2019-04-11T05:41:12.232Z,12.43
2019-04-11T05:44:16.764Z,18.80
2019-04-11T05:47:21.470Z,14.13
2019-04-11T05:50:28.456Z,14.53
2019-04-11T05:53:36.185Z,15.27
2019-04-11T05:56:39.821Z,12.00
2019-04-11T05:59:51.994Z,12.03
2019-04-11T06:02:57.518Z,15.77
2019-04-11T06:06:08.572Z,13.63
2019-04-11T06:09:16.296Z,14.17
2019-04-11T06:12:38.370Z,17.60
2019-04-11T06:16:01.358Z,13.37
2019-04-11T06:19:24.836Z,14.27
2019-04-11T06:22:29.707Z,13.47
2019-04-11T06:25:51.886Z,11.83
2019-04-11T06:29:01.353Z,12.23
2019-04-11T06:32:21.561Z,11.40
2019-04-11T06:35:39.957Z,14.13
2019-04-11T06:38:49.275Z,13.63
2019-04-11T06:41:59.074Z,12.63
2019-04-11T06:45:15.625Z,13.87
2019-04-11T06:48:23.322Z,12.77
2019-04-11T06:51:30.281Z,11.77
2019-04-11T06:54:39.388Z,11.50
2019-04-11T06:57:48.430Z,12.23
2019-04-11T07:00:55.701Z,13.03
2019-04-11T07:04:03.042Z,14.10
2019-04-11T07:07:12.970Z,10.53
2019-04-11T07:10:20.249Z,14.80
2019-04-11T07:13:26.393Z,12.20
2019-04-11T07:16:31.999Z,12.67
2019-04-11T07:19:48.015Z,13.33
2019-04-11T07:23:11.401Z,12.37
2019-04-11T07:26:25.102Z,15.73
2019-04-11T07:29:31.603Z,14.43
2019-04-11T07:32:36.458Z,13.67
2019-04-11T07:35:42.669Z,12.67
2019-04-11T07:38:54.509Z,14.23
2019-04-11T07:42:15.937Z,12.70
2019-04-11T07:45:23.089Z,12.67
2019-04-11T07:48:31.697Z,14.90
2019-04-11T07:51:36.524Z,12.57
2019-04-11T07:54:41.743Z,15.93
2019-04-11T07:57:48.755Z,13.47
2019-04-11T08:00:55.937Z,14.50
2019-04-11T08:04:15.344Z,14.80
2019-04-11T08:07:30.668Z,13.37
2019-04-11T08:10:41.245Z,15.53
2019-04-11T08:13:53.640Z,14.73
2019-04-11T08:16:59.812Z,13.87
2019-04-11T08:20:25.527Z,22.27
2019-04-11T08:23:30.095Z,13.67
2019-04-11T08:26:52.589Z,16.23
2019-04-11T08:29:58.848Z,16.03
2019-04-11T08:33:05.045Z,16.17
2019-04-11T08:36:27.268Z,13.97
2019-04-11T08:39:31.713Z,15.80
2019-04-11T08:42:54.829Z,14.97
2019-04-11T08:46:18.377Z,16.63
2019-04-11T08:49:33.900Z,15.13
2019-04-11T08:52:49.868Z,12.67
2019-04-11T08:55:58.812Z,14.70
2019-04-11T08:59:33.449Z,18.57
2019-04-11T09:02:38.738Z,14.90
2019-04-11T09:05:51.305Z,19.30
2019-04-11T09:09:13.760Z,17.63
2019-04-11T09:12:18.522Z,17.23
2019-04-11T09:15:26.601Z,17.37
2019-04-11T09:18:32.992Z,14.97
2019-04-11T09:21:56.243Z,20.53
2019-04-11T09:25:09.284Z,18.67
2019-04-11T09:28:15.585Z,16.50
2019-04-11T09:31:37.906Z,16.80
2019-04-11T09:34:48.229Z,21.00
2019-04-11T09:37:53.730Z,18.97
2019-04-11T09:41:06.073Z,16.80
2019-04-11T09:44:12.820Z,16.53
2019-04-11T09:47:36.111Z,16.23
2019-04-11T09:50:51.352Z,16.07
2019-04-11T09:54:10.226Z,17.53
2019-04-11T09:57:16.535Z,19.50
2019-04-11T10:00:22.967Z,18.90
2019-04-11T10:03:29.199Z,16.80
2019-04-11T10:06:47.299Z,21.47
2019-04-11T10:10:10.722Z,16.20
2019-04-11T10:13:16.308Z,16.70
2019-04-11T10:16:26.433Z,16.37
2019-04-11T10:19:36.020Z,17.57
2019-04-11T10:22:40.499Z,20.67
2019-04-11T10:25:45.534Z,18.13
2019-04-11T10:28:54.447Z,17.33
2019-04-11T10:31:59.569Z,15.97
2019-04-11T10:35:22.523Z,16.57
2019-04-11T10:38:26.967Z,19.50
2019-04-11T10:41:33.364Z,21.77
2019-04-11T10:44:42.340Z,20.60
2019-04-11T10:47:47.308Z,17.67
2019-04-11T10:50:54.369Z,16.97
2019-04-11T10:53:59.663Z,22.37
2019-04-11T10:57:22.411Z,20.27
2019-04-11T11:00:29.392Z,19.87
2019-04-11T11:03:51.425Z,20.00
2019-04-11T11:06:57.688Z,20.50
2019-04-11T11:10:03.777Z,18.63
2019-04-11T11:13:18.602Z,20.17
2019-04-11T11:16:27.481Z,19.67
2019-04-11T11:19:59.713Z,20.23
2019-04-11T11:22:55.877Z,19.13
2019-04-11T11:26:02.814Z,24.97
2019-04-11T11:29:24.337Z,18.83
2019-04-11T11:32:29.423Z,19.67
2019-04-11T11:35:49.895Z,19.90
2019-04-11T11:39:13.072Z,19.33
2019-04-11T11:42:35.115Z,19.63
2019-04-11T11:45:55.560Z,19.20
2019-04-11T11:49:02.453Z,23.73
2019-04-11T11:52:25.336Z,16.97
2019-04-11T11:55:31.701Z,19.27
2019-04-11T11:58:47.871Z,18.90
2019-04-11T12:01:58.121Z,17.70
2019-04-11T12:05:11.297Z,19.13
2019-04-11T12:08:18.258Z,18.10
2019-04-11T12:11:24.457Z,18.87
2019-04-11T12:14:49.630Z,22.53
2019-04-11T12:17:55.812Z,19.17
2019-04-11T12:21:03.086Z,17.63
2019-04-11T12:24:25.281Z,21.03
2019-04-11T12:27:50.125Z,17.83
2019-04-11T12:31:00.676Z,17.20
2019-04-11T12:34:19.604Z,17.97
2019-04-11T12:37:29.457Z,17.50
2019-04-11T12:40:51.722Z,15.67
2019-04-11T12:43:58.398Z,18.33
2019-04-11T12:47:13.078Z,18.17
2019-04-11T12:50:36.479Z,18.83
2019-04-11T12:53:40.994Z,16.47
2019-04-11T12:57:03.451Z,18.67
2019-04-11T13:00:14.396Z,20.40
2019-04-11T13:03:27.820Z,16.93
2019-04-11T13:06:37.019Z,17.27
2019-04-11T13:09:43.794Z,18.67
2019-04-11T13:12:50.912Z,15.80
2019-04-11T13:15:57.064Z,19.73
2019-04-11T13:19:19.333Z,16.67
2019-04-11T13:22:25.645Z,18.90
2019-04-11T13:25:35.449Z,20.33
2019-04-11T13:28:41.537Z,18.63
2019-04-11T13:31:45.741Z,21.33
2019-04-11T13:35:10.161Z,17.80
2019-04-11T13:38:18.955Z,18.53
2019-04-11T13:41:43.002Z,16.77
2019-04-11T13:44:47.461Z,18.47
2019-04-11T13:48:08.803Z,18.83
2019-04-11T13:51:21.872Z,17.20
2019-04-11T13:54:34.191Z,17.87
2019-04-11T13:57:38.675Z,16.97
2019-04-11T14:00:47.721Z,20.83
2019-04-11T14:03:58.082Z,16.60
2019-04-11T14:07:02.906Z,17.53
2019-04-11T14:10:12.467Z,17.13
2019-04-11T14:13:16.968Z,15.50
2019-04-11T14:16:29.949Z,21.47
2019-04-11T14:19:41.431Z,16.90
2019-04-11T14:22:59.769Z,16.43
2019-04-11T14:26:06.098Z,14.17
2019-04-11T14:29:12.173Z,15.27
2019-04-11T14:32:18.258Z,17.63
2019-04-11T14:35:30.435Z,14.37
2019-04-11T14:38:45.549Z,15.70
2019-04-11T14:41:44.298Z,15.03
2019-04-11T14:44:50.394Z,20.93
2019-04-11T14:48:14.462Z,16.63
2019-04-11T14:51:18.970Z,16.13
2019-04-11T14:54:28.005Z,17.50
2019-04-11T14:57:34.801Z,18.00
2019-04-11T15:00:39.261Z,15.57
2019-04-11T15:03:57.622Z,15.60
2019-04-11T15:07:03.712Z,14.17
2019-04-11T15:10:22.482Z,18.93
2019-04-11T15:13:28.564Z,15.03
2019-04-11T15:16:50.454Z,17.17
2019-04-11T15:20:03.774Z,15.60
2019-04-11T15:23:12.984Z,18.23
2019-04-11T15:26:28.318Z,15.10
2019-04-11T15:29:33.050Z,17.00
2019-04-11T15:32:46.287Z,21.70
2019-04-11T15:35:52.377Z,15.33
2019-04-11T15:39:15.099Z,17.20
2019-04-11T15:42:21.191Z,15.83
2019-04-11T15:45:25.400Z,16.60
2019-04-11T15:48:31.747Z,14.17
2019-04-11T15:51:37.752Z,15.73
2019-04-11T15:55:02.217Z,17.23
2019-04-11T15:58:06.586Z,17.40
2019-04-11T16:01:18.929Z,15.47
2019-04-11T16:04:28.054Z,15.67
2019-04-11T16:07:39.924Z,18.83
2019-04-11T16:11:03.232Z,14.97
2019-04-11T16:14:09.439Z,15.20
2019-04-11T16:17:19.453Z,15.17
2019-04-11T16:20:24.597Z,16.93
2019-04-11T16:23:39.458Z,17.10
2019-04-11T16:27:01.746Z,15.07
2019-04-11T16:30:12.134Z,14.63
2019-04-11T16:33:27.880Z,15.63
2019-04-11T16:36:34.333Z,17.40
2019-04-11T16:39:56.572Z,16.03
2019-04-11T16:43:02.654Z,18.77
2019-04-11T16:46:25.385Z,16.00
2019-04-11T16:49:29.859Z,16.80
2019-04-11T16:52:38.267Z,15.33
2019-04-11T16:55:43.102Z,16.87
2019-04-11T16:58:50.151Z,18.30
2019-04-11T17:01:53.906Z,15.60
2019-04-11T17:04:58.866Z,17.30
2019-04-11T17:08:21.230Z,18.03
2019-04-11T17:11:27.117Z,17.37
2019-04-11T17:14:33.341Z,16.40
2019-04-11T17:17:38.247Z,15.00
2019-04-11T17:20:42.685Z,16.90
2019-04-11T17:23:47.833Z,16.57
2019-04-11T17:26:53.343Z,16.67
2019-04-11T17:29:57.933Z,18.23
2019-04-11T17:33:02.381Z,15.80
2019-04-11T17:36:06.823Z,19.00
2019-04-11T17:39:11.338Z,17.07
2019-04-11T17:42:15.778Z,17.23
2019-04-11T17:45:20.226Z,17.73
2019-04-11T17:48:24.676Z,14.97
2019-04-11T17:51:29.118Z,15.80
2019-04-11T17:54:33.578Z,17.43
2019-04-11T17:57:38.031Z,17.23
2019-04-11T18:00:46.862Z,17.33
2019-04-11T18:03:51.311Z,15.73
2019-04-11T18:06:55.760Z,20.63
2019-04-11T18:10:00.216Z,19.00
2019-04-11T18:13:04.644Z,19.10
2019-04-11T18:16:09.163Z,15.40
2019-04-11T18:19:13.925Z,14.80
2019-04-11T18:22:18.366Z,15.77
2019-04-11T18:25:22.894Z,17.97
2019-04-11T18:28:27.608Z,21.00
2019-04-11T18:31:32.054Z,17.20
2019-04-11T18:34:36.506Z,15.43
2019-04-11T18:37:40.939Z,14.07
2019-04-11T18:40:45.536Z,17.03
2019-04-11T18:43:50.884Z,15.60
2019-04-11T18:46:55.683Z,15.80
2019-04-11T18:50:00.415Z,14.97
2019-04-11T18:53:04.916Z,16.70
2019-04-11T18:56:09.435Z,15.97
2019-04-11T18:59:13.873Z,16.50
2019-04-11T19:02:18.325Z,15.03
2019-04-11T19:05:28.523Z,14.10
2019-04-11T19:08:29.448Z,14.57
2019-04-11T19:11:33.913Z,14.73
2019-04-11T19:14:38.367Z,14.27
2019-04-11T19:17:43.955Z,15.23
2019-04-11T19:20:50.332Z,16.97
2019-04-11T19:23:55.383Z,13.73
2019-04-11T19:26:59.829Z,13.83
2019-04-11T19:30:07.172Z,13.07
2019-04-11T19:33:11.611Z,15.13
2019-04-11T19:36:16.055Z,12.37
2019-04-11T19:39:23.136Z,11.83
2019-04-11T19:42:26.737Z,10.83
2019-04-11T19:45:31.461Z,13.53
2019-04-11T19:48:36.237Z,13.93
2019-04-11T19:51:40.687Z,13.63
2019-04-11T19:54:45.392Z,15.20
2019-04-11T19:57:49.832Z,15.87
2019-04-11T20:00:54.283Z,12.07
2019-04-11T20:03:58.702Z,13.43
2019-04-11T20:07:07.070Z,12.13
2019-04-11T20:10:12.431Z,15.20
2019-04-11T20:13:20.426Z,15.57
2019-04-11T20:16:25.330Z,15.23
2019-04-11T20:19:29.823Z,13.73
2019-04-11T20:22:39.203Z,13.53
2019-04-11T20:25:40.683Z,12.07
2019-04-11T20:28:45.120Z,14.57
2019-04-11T20:31:49.553Z,12.60
2019-04-11T20:34:53.980Z,12.80
2019-04-11T20:37:58.420Z,14.87
2019-04-11T20:41:03.132Z,13.37
2019-04-11T20:44:07.564Z,15.17
2019-04-11T20:47:12.000Z,13.67
2019-04-11T20:50:16.434Z,14.90
2019-04-11T20:53:20.877Z,15.60
2019-04-11T20:56:25.653Z,15.10
2019-04-11T20:59:34.836Z,15.93
2019-04-11T21:02:36.242Z,16.77
2019-04-11T21:05:40.687Z,14.73
2019-04-11T21:08:45.115Z,12.37
2019-04-11T21:11:49.805Z,14.43
2019-04-11T21:14:54.534Z,13.90
2019-04-11T21:17:58.970Z,13.30
2019-04-11T21:21:03.418Z,12.70
2019-04-11T21:24:07.852Z,12.23
2019-04-11T21:27:12.284Z,12.07
2019-04-11T21:30:17.085Z,13.50
2019-04-11T21:33:21.795Z,13.33
2019-04-11T21:36:27.009Z,15.37
2019-04-11T21:39:31.673Z,16.90
2019-04-11T21:42:36.770Z,12.53
2019-04-11T21:45:41.302Z,13.57
2019-04-11T21:48:45.737Z,12.40
2019-04-11T21:51:50.184Z,12.73
2019-04-11T21:54:54.612Z,15.07
2019-04-11T21:57:59.053Z,13.40
2019-04-11T22:01:08.285Z,12.53
2019-04-11T22:04:13.097Z,11.70
2019-04-11T22:07:17.829Z,12.20
2019-04-11T22:10:22.552Z,10.57
2019-04-11T22:13:27.056Z,15.07
2019-04-11T22:16:31.504Z,11.10
2019-04-11T22:19:36.236Z,15.07
2019-04-11T22:22:40.676Z,13.37
2019-04-11T22:25:45.105Z,13.10
2019-04-11T22:28:49.544Z,17.20
2019-04-11T22:31:55.957Z,12.83
2019-04-11T22:35:00.398Z,9.77
2019-04-11T22:38:04.836Z,12.77
2019-04-11T22:41:09.262Z,13.83
2019-04-11T22:44:13.710Z,11.57
2019-04-11T22:47:18.150Z,14.17
2019-04-11T22:50:22.577Z,10.73
2019-04-11T22:53:27.019Z,13.90
2019-04-11T22:56:31.458Z,11.37
2019-04-11T22:59:36.300Z,11.63
2019-04-11T23:02:42.375Z,13.27
2019-04-11T23:05:47.449Z,13.47
2019-04-11T23:08:52.347Z,14.77
2019-04-11T23:11:56.777Z,10.70
2019-04-11T23:15:01.213Z,10.83
2019-04-11T23:18:05.913Z,13.03
2019-04-11T23:21:11.807Z,13.23
2019-04-11T23:24:16.510Z,13.53
2019-04-11T23:27:20.936Z,12.80
2019-04-11T23:30:25.375Z,11.33
2019-04-11T23:33:29.808Z,11.33
2019-04-11T23:36:34.504Z,14.67
2019-04-11T23:39:38.943Z,11.83
2019-04-11T23:42:43.371Z,11.37
2019-04-11T23:45:50.967Z,13.63
2019-04-11T23:48:55.455Z,13.43
2019-04-11T23:52:00.179Z,13.83
2019-04-11T23:55:05.739Z,13.47
2019-04-11T23:58:10.167Z,11.77
